Sunfield, Michigan
Current Conditions -  °F | °C
As of 8:54 PM on Monday 24 Nov 2014 (Local Time) from KY70 Reporting Station
Light Snow Light Snow  
Wind Chill: 18°   Ceiling: 1500
Heat Index: 33°   Visibility: 10mi
Dew Point: 29°   Wind: 33mph
Humidity: 87%   Direction: 240°WSW
Pressure: 29.55"   Gusts: 43mph
Location:  42.76°N, 84.99°W
Report Text: KY70 250154Z AUTO 24029G37KT 10SM -SN OVC015 00/M02 A2955 RMK AO2 T00031017
Loading
Personal Weather Stations






























Interactive Weather Map New forecast layout! Learn more

10-Day Weather Forecast

Advertisements
Track Severe Weather on mobile